sensor_id;sensor_type;location;lat;lon;timestamp;temperature;humidity
25877;DHT22;13692;47.480;19.216;2023-04-09T00:00:42;5.40;99.90
25877;DHT22;13692;47.480;19.216;2023-04-09T00:03:09;5.40;99.90
25877;DHT22;13692;47.480;19.216;2023-04-09T00:05:40;5.40;99.90
25877;DHT22;13692;47.480;19.216;2023-04-09T00:08:07;5.40;99.90
25877;DHT22;13692;47.480;19.216;2023-04-09T00:10:34;5.30;99.90
25877;DHT22;13692;47.480;19.216;2023-04-09T00:13:01;5.40;99.90
25877;DHT22;13692;47.480;19.216;2023-04-09T00:15:28;5.40;99.90
25877;DHT22;13692;47.480;19.216;2023-04-09T00:17:58;5.40;99.90
25877;DHT22;13692;47.480;19.216;2023-04-09T00:20:25;5.40;99.90
25877;DHT22;13692;47.480;19.216;2023-04-09T00:22:52;5.30;99.90
25877;DHT22;13692;47.480;19.216;2023-04-09T00:25:19;5.30;99.90
25877;DHT22;13692;47.480;19.216;2023-04-09T00:27:46;5.40;99.90
25877;DHT22;13692;47.480;19.216;2023-04-09T00:30:15;5.40;99.90
25877;DHT22;13692;47.480;19.216;2023-04-09T00:32:42;5.40;99.90
25877;DHT22;13692;47.480;19.216;2023-04-09T00:35:09;5.40;99.90
25877;DHT22;13692;47.480;19.216;2023-04-09T00:37:36;5.40;99.90
25877;DHT22;13692;47.480;19.216;2023-04-09T00:40:03;5.40;99.90
25877;DHT22;13692;47.480;19.216;2023-04-09T00:42:32;5.40;99.90
25877;DHT22;13692;47.480;19.216;2023-04-09T00:44:59;5.40;99.90
25877;DHT22;13692;47.480;19.216;2023-04-09T00:47:27;5.40;99.90
25877;DHT22;13692;47.480;19.216;2023-04-09T00:49:55;5.40;99.90
25877;DHT22;13692;47.480;19.216;2023-04-09T00:52:23;5.40;99.90
25877;DHT22;13692;47.480;19.216;2023-04-09T00:54:51;5.40;99.90
25877;DHT22;13692;47.480;19.216;2023-04-09T00:57:18;5.40;99.90
25877;DHT22;13692;47.480;19.216;2023-04-09T00:59:45;5.40;99.90
25877;DHT22;13692;47.480;19.216;2023-04-09T01:02:12;5.40;99.90
25877;DHT22;13692;47.480;19.216;2023-04-09T01:04:40;5.40;99.90
25877;DHT22;13692;47.480;19.216;2023-04-09T01:07:19;5.40;99.90
25877;DHT22;13692;47.480;19.216;2023-04-09T01:15:32;5.50;99.90
25877;DHT22;13692;47.480;19.216;2023-04-09T01:18:09;5.50;99.90
25877;DHT22;13692;47.480;19.216;2023-04-09T01:26:02;5.40;99.90
25877;DHT22;13692;47.480;19.216;2023-04-09T01:28:36;5.40;99.90
25877;DHT22;13692;47.480;19.216;2023-04-09T01:31:16;5.30;99.90
25877;DHT22;13692;47.480;19.216;2023-04-09T01:33:45;5.30;99.90
25877;DHT22;13692;47.480;19.216;2023-04-09T01:36:13;5.30;99.90
25877;DHT22;13692;47.480;19.216;2023-04-09T01:38:41;5.40;99.90
25877;DHT22;13692;47.480;19.216;2023-04-09T01:41:13;5.40;99.90
25877;DHT22;13692;47.480;19.216;2023-04-09T01:43:41;5.40;99.90
25877;DHT22;13692;47.480;19.216;2023-04-09T01:46:09;5.40;99.90
25877;DHT22;13692;47.480;19.216;2023-04-09T01:48:38;5.50;99.90
25877;DHT22;13692;47.480;19.216;2023-04-09T01:51:05;5.50;99.90
25877;DHT22;13692;47.480;19.216;2023-04-09T01:53:32;5.50;99.90
25877;DHT22;13692;47.480;19.216;2023-04-09T01:55:59;5.40;99.90
25877;DHT22;13692;47.480;19.216;2023-04-09T01:58:27;5.50;99.90
25877;DHT22;13692;47.480;19.216;2023-04-09T02:01:04;5.50;99.90
25877;DHT22;13692;47.480;19.216;2023-04-09T02:03:57;5.50;99.90
25877;DHT22;13692;47.480;19.216;2023-04-09T02:06:39;5.50;99.90
25877;DHT22;13692;47.480;19.216;2023-04-09T02:09:08;5.50;99.90
25877;DHT22;13692;47.480;19.216;2023-04-09T02:11:37;5.50;99.90
25877;DHT22;13692;47.480;19.216;2023-04-09T02:14:06;5.60;99.90
25877;DHT22;13692;47.480;19.216;2023-04-09T02:16:35;5.60;99.90
25877;DHT22;13692;47.480;19.216;2023-04-09T02:19:02;5.60;99.90
25877;DHT22;13692;47.480;19.216;2023-04-09T02:21:29;5.60;99.90
25877;DHT22;13692;47.480;19.216;2023-04-09T02:23:57;5.60;99.90
25877;DHT22;13692;47.480;19.216;2023-04-09T02:26:24;5.50;99.90
25877;DHT22;13692;47.480;19.216;2023-04-09T02:28:51;5.60;99.90
25877;DHT22;13692;47.480;19.216;2023-04-09T02:31:18;5.60;99.90
25877;DHT22;13692;47.480;19.216;2023-04-09T02:33:46;5.60;99.90
25877;DHT22;13692;47.480;19.216;2023-04-09T02:36:12;5.60;99.90
25877;DHT22;13692;47.480;19.216;2023-04-09T02:38:40;5.50;99.90
25877;DHT22;13692;47.480;19.216;2023-04-09T02:41:08;5.50;99.90
25877;DHT22;13692;47.480;19.216;2023-04-09T02:43:35;5.50;99.90
25877;DHT22;13692;47.480;19.216;2023-04-09T02:46:02;5.60;99.90
25877;DHT22;13692;47.480;19.216;2023-04-09T02:48:29;5.50;99.90
25877;DHT22;13692;47.480;19.216;2023-04-09T02:50:57;5.50;99.90
25877;DHT22;13692;47.480;19.216;2023-04-09T02:53:24;5.50;99.90
25877;DHT22;13692;47.480;19.216;2023-04-09T02:55:51;5.50;99.90
25877;DHT22;13692;47.480;19.216;2023-04-09T02:58:18;5.50;99.90
25877;DHT22;13692;47.480;19.216;2023-04-09T03:00:45;5.50;99.90
25877;DHT22;13692;47.480;19.216;2023-04-09T03:03:12;5.40;99.90
25877;DHT22;13692;47.480;19.216;2023-04-09T03:05:39;5.40;99.90
25877;DHT22;13692;47.480;19.216;2023-04-09T03:08:06;5.40;99.90
25877;DHT22;13692;47.480;19.216;2023-04-09T03:10:33;5.50;99.90
25877;DHT22;13692;47.480;19.216;2023-04-09T03:13:00;5.40;99.90
25877;DHT22;13692;47.480;19.216;2023-04-09T03:15:27;5.40;99.90
25877;DHT22;13692;47.480;19.216;2023-04-09T03:17:53;5.40;99.90
25877;DHT22;13692;47.480;19.216;2023-04-09T03:20:20;5.40;99.90
25877;DHT22;13692;47.480;19.216;2023-04-09T03:22:47;5.50;99.90
25877;DHT22;13692;47.480;19.216;2023-04-09T03:25:14;5.50;99.90
25877;DHT22;13692;47.480;19.216;2023-04-09T03:27:41;5.60;99.90
25877;DHT22;13692;47.480;19.216;2023-04-09T03:30:08;5.60;99.90
25877;DHT22;13692;47.480;19.216;2023-04-09T03:32:36;5.60;99.90
25877;DHT22;13692;47.480;19.216;2023-04-09T03:35:03;5.60;99.90
25877;DHT22;13692;47.480;19.216;2023-04-09T03:37:30;5.60;99.90
25877;DHT22;13692;47.480;19.216;2023-04-09T03:39:57;5.60;99.90
25877;DHT22;13692;47.480;19.216;2023-04-09T03:42:23;5.60;99.90
25877;DHT22;13692;47.480;19.216;2023-04-09T03:44:52;5.60;99.90
25877;DHT22;13692;47.480;19.216;2023-04-09T03:47:20;5.60;99.90
25877;DHT22;13692;47.480;19.216;2023-04-09T03:49:47;5.60;99.90
25877;DHT22;13692;47.480;19.216;2023-04-09T03:52:14;5.60;99.90
25877;DHT22;13692;47.480;19.216;2023-04-09T03:54:41;5.60;99.90
25877;DHT22;13692;47.480;19.216;2023-04-09T03:57:09;5.60;99.90
25877;DHT22;13692;47.480;19.216;2023-04-09T03:59:36;5.70;99.90
25877;DHT22;13692;47.480;19.216;2023-04-09T04:02:03;5.70;99.90
25877;DHT22;13692;47.480;19.216;2023-04-09T04:04:30;5.60;99.90
25877;DHT22;13692;47.480;19.216;2023-04-09T04:06:57;5.70;99.90
25877;DHT22;13692;47.480;19.216;2023-04-09T04:09:24;5.70;99.90
25877;DHT22;13692;47.480;19.216;2023-04-09T04:11:51;5.70;99.90
25877;DHT22;13692;47.480;19.216;2023-04-09T04:14:17;5.60;99.90
25877;DHT22;13692;47.480;19.216;2023-04-09T04:16:44;5.50;99.90
25877;DHT22;13692;47.480;19.216;2023-04-09T04:19:11;5.50;99.90
25877;DHT22;13692;47.480;19.216;2023-04-09T04:21:38;5.60;99.90
25877;DHT22;13692;47.480;19.216;2023-04-09T04:24:05;5.60;99.90
25877;DHT22;13692;47.480;19.216;2023-04-09T04:26:32;5.70;99.90
25877;DHT22;13692;47.480;19.216;2023-04-09T04:28:59;5.70;99.90
25877;DHT22;13692;47.480;19.216;2023-04-09T04:31:26;5.60;99.90
25877;DHT22;13692;47.480;19.216;2023-04-09T04:33:53;5.60;99.90
25877;DHT22;13692;47.480;19.216;2023-04-09T04:36:20;5.70;99.90
25877;DHT22;13692;47.480;19.216;2023-04-09T04:38:47;5.70;99.90
25877;DHT22;13692;47.480;19.216;2023-04-09T04:41:14;5.70;99.90
25877;DHT22;13692;47.480;19.216;2023-04-09T04:43:41;5.70;99.90
25877;DHT22;13692;47.480;19.216;2023-04-09T04:46:08;5.80;99.90
25877;DHT22;13692;47.480;19.216;2023-04-09T04:48:35;5.80;99.90
25877;DHT22;13692;47.480;19.216;2023-04-09T04:51:02;5.80;99.90
25877;DHT22;13692;47.480;19.216;2023-04-09T04:53:29;5.80;99.90
25877;DHT22;13692;47.480;19.216;2023-04-09T04:55:56;5.90;99.90
25877;DHT22;13692;47.480;19.216;2023-04-09T04:58:23;5.80;99.90
25877;DHT22;13692;47.480;19.216;2023-04-09T05:00:51;5.80;99.90
25877;DHT22;13692;47.480;19.216;2023-04-09T05:03:18;5.80;99.90
25877;DHT22;13692;47.480;19.216;2023-04-09T05:05:45;5.90;99.90
25877;DHT22;13692;47.480;19.216;2023-04-09T05:08:12;5.90;99.90
25877;DHT22;13692;47.480;19.216;2023-04-09T05:10:40;5.90;99.90
25877;DHT22;13692;47.480;19.216;2023-04-09T05:13:08;5.90;99.90
25877;DHT22;13692;47.480;19.216;2023-04-09T05:15:38;6.00;99.90
25877;DHT22;13692;47.480;19.216;2023-04-09T05:18:06;6.00;99.90
25877;DHT22;13692;47.480;19.216;2023-04-09T05:20:33;6.10;99.90
25877;DHT22;13692;47.480;19.216;2023-04-09T05:23:00;6.00;99.90
25877;DHT22;13692;47.480;19.216;2023-04-09T05:25:28;6.10;99.90
25877;DHT22;13692;47.480;19.216;2023-04-09T05:27:55;6.10;99.90
25877;DHT22;13692;47.480;19.216;2023-04-09T05:30:22;6.10;99.90
25877;DHT22;13692;47.480;19.216;2023-04-09T05:32:49;6.10;99.90
25877;DHT22;13692;47.480;19.216;2023-04-09T05:35:16;6.20;99.90
25877;DHT22;13692;47.480;19.216;2023-04-09T05:37:43;6.20;99.90
25877;DHT22;13692;47.480;19.216;2023-04-09T05:40:10;6.30;99.90
25877;DHT22;13692;47.480;19.216;2023-04-09T05:42:37;6.30;99.90
25877;DHT22;13692;47.480;19.216;2023-04-09T05:45:04;6.30;99.90
25877;DHT22;13692;47.480;19.216;2023-04-09T05:47:31;6.40;99.90
25877;DHT22;13692;47.480;19.216;2023-04-09T05:49:58;6.40;99.90
25877;DHT22;13692;47.480;19.216;2023-04-09T05:52:25;6.40;99.90
25877;DHT22;13692;47.480;19.216;2023-04-09T05:54:52;6.40;99.90
25877;DHT22;13692;47.480;19.216;2023-04-09T05:57:19;6.40;99.90
25877;DHT22;13692;47.480;19.216;2023-04-09T05:59:46;6.50;99.90
25877;DHT22;13692;47.480;19.216;2023-04-09T06:02:13;6.50;99.90
25877;DHT22;13692;47.480;19.216;2023-04-09T06:04:40;6.50;99.90
25877;DHT22;13692;47.480;19.216;2023-04-09T06:07:07;6.50;99.90
25877;DHT22;13692;47.480;19.216;2023-04-09T06:09:34;6.50;99.90
25877;DHT22;13692;47.480;19.216;2023-04-09T06:12:01;6.60;99.90
25877;DHT22;13692;47.480;19.216;2023-04-09T06:14:28;6.60;99.90
25877;DHT22;13692;47.480;19.216;2023-04-09T06:17:00;6.70;99.90
25877;DHT22;13692;47.480;19.216;2023-04-09T06:19:27;6.70;99.90
25877;DHT22;13692;47.480;19.216;2023-04-09T06:21:54;6.70;99.90
25877;DHT22;13692;47.480;19.216;2023-04-09T06:24:21;6.70;99.90
25877;DHT22;13692;47.480;19.216;2023-04-09T06:26:51;6.80;99.90
25877;DHT22;13692;47.480;19.216;2023-04-09T06:29:18;6.80;99.90
25877;DHT22;13692;47.480;19.216;2023-04-09T06:31:44;6.90;99.90
25877;DHT22;13692;47.480;19.216;2023-04-09T06:34:12;6.90;99.90
25877;DHT22;13692;47.480;19.216;2023-04-09T06:36:39;7.00;99.90
25877;DHT22;13692;47.480;19.216;2023-04-09T06:39:06;7.00;99.90
25877;DHT22;13692;47.480;19.216;2023-04-09T06:41:33;7.00;99.90
25877;DHT22;13692;47.480;19.216;2023-04-09T06:44:00;7.00;99.90
25877;DHT22;13692;47.480;19.216;2023-04-09T06:46:27;7.00;99.90
25877;DHT22;13692;47.480;19.216;2023-04-09T06:48:54;7.00;99.90
25877;DHT22;13692;47.480;19.216;2023-04-09T06:51:23;7.10;99.90
25877;DHT22;13692;47.480;19.216;2023-04-09T06:53:50;7.00;99.90
25877;DHT22;13692;47.480;19.216;2023-04-09T06:56:17;7.10;99.90
25877;DHT22;13692;47.480;19.216;2023-04-09T06:58:44;7.10;99.90
25877;DHT22;13692;47.480;19.216;2023-04-09T07:01:11;7.10;99.90
25877;DHT22;13692;47.480;19.216;2023-04-09T07:03:38;7.10;99.90
25877;DHT22;13692;47.480;19.216;2023-04-09T07:06:05;7.10;99.90
25877;DHT22;13692;47.480;19.216;2023-04-09T07:08:32;7.10;99.90
25877;DHT22;13692;47.480;19.216;2023-04-09T07:10:59;7.20;99.90
25877;DHT22;13692;47.480;19.216;2023-04-09T07:13:26;7.30;99.90
25877;DHT22;13692;47.480;19.216;2023-04-09T07:15:54;7.40;99.90
25877;DHT22;13692;47.480;19.216;2023-04-09T07:18:21;7.50;99.90
25877;DHT22;13692;47.480;19.216;2023-04-09T07:20:47;7.50;99.90
25877;DHT22;13692;47.480;19.216;2023-04-09T07:23:14;7.60;99.90
25877;DHT22;13692;47.480;19.216;2023-04-09T07:25:42;7.60;99.90
25877;DHT22;13692;47.480;19.216;2023-04-09T07:28:09;7.70;99.90
25877;DHT22;13692;47.480;19.216;2023-04-09T07:30:38;7.80;99.90
25877;DHT22;13692;47.480;19.216;2023-04-09T07:33:05;7.80;99.90
25877;DHT22;13692;47.480;19.216;2023-04-09T07:35:32;7.90;99.90
25877;DHT22;13692;47.480;19.216;2023-04-09T07:38:00;7.80;99.90
25877;DHT22;13692;47.480;19.216;2023-04-09T07:40:27;7.80;99.90
25877;DHT22;13692;47.480;19.216;2023-04-09T07:42:54;7.90;99.90
25877;DHT22;13692;47.480;19.216;2023-04-09T07:45:21;8.10;99.90
25877;DHT22;13692;47.480;19.216;2023-04-09T07:47:48;8.30;99.90
25877;DHT22;13692;47.480;19.216;2023-04-09T07:50:15;8.50;99.90
25877;DHT22;13692;47.480;19.216;2023-04-09T07:52:42;8.60;99.90
25877;DHT22;13692;47.480;19.216;2023-04-09T07:55:09;8.80;99.90
25877;DHT22;13692;47.480;19.216;2023-04-09T07:57:36;8.80;99.90
25877;DHT22;13692;47.480;19.216;2023-04-09T08:00:04;8.60;99.90
25877;DHT22;13692;47.480;19.216;2023-04-09T08:02:32;8.70;99.90
25877;DHT22;13692;47.480;19.216;2023-04-09T08:04:59;8.90;99.90
25877;DHT22;13692;47.480;19.216;2023-04-09T08:07:26;9.00;99.90
25877;DHT22;13692;47.480;19.216;2023-04-09T08:09:53;9.20;99.90
25877;DHT22;13692;47.480;19.216;2023-04-09T08:12:20;9.30;99.90
25877;DHT22;13692;47.480;19.216;2023-04-09T08:14:47;9.50;99.90
25877;DHT22;13692;47.480;19.216;2023-04-09T08:17:14;9.60;99.90
25877;DHT22;13692;47.480;19.216;2023-04-09T08:19:41;9.80;99.90
25877;DHT22;13692;47.480;19.216;2023-04-09T08:22:08;9.90;99.90
25877;DHT22;13692;47.480;19.216;2023-04-09T08:24:35;9.90;99.90
25877;DHT22;13692;47.480;19.216;2023-04-09T08:27:02;9.90;99.90
25877;DHT22;13692;47.480;19.216;2023-04-09T08:29:30;9.80;99.90
25877;DHT22;13692;47.480;19.216;2023-04-09T08:31:57;9.90;99.90
25877;DHT22;13692;47.480;19.216;2023-04-09T08:34:24;10.00;99.90
25877;DHT22;13692;47.480;19.216;2023-04-09T08:36:51;10.10;99.90
25877;DHT22;13692;47.480;19.216;2023-04-09T08:39:18;10.10;99.90
25877;DHT22;13692;47.480;19.216;2023-04-09T08:41:46;10.10;99.90
25877;DHT22;13692;47.480;19.216;2023-04-09T08:44:14;10.00;99.90
25877;DHT22;13692;47.480;19.216;2023-04-09T08:46:41;10.00;99.90
25877;DHT22;13692;47.480;19.216;2023-04-09T08:49:08;9.70;99.90
25877;DHT22;13692;47.480;19.216;2023-04-09T08:51:36;9.80;99.90
25877;DHT22;13692;47.480;19.216;2023-04-09T08:54:05;9.80;99.90
25877;DHT22;13692;47.480;19.216;2023-04-09T08:56:32;9.90;99.90
25877;DHT22;13692;47.480;19.216;2023-04-09T08:58:59;9.90;99.90
25877;DHT22;13692;47.480;19.216;2023-04-09T09:01:28;9.90;99.90
25877;DHT22;13692;47.480;19.216;2023-04-09T09:04:06;10.00;99.90
25877;DHT22;13692;47.480;19.216;2023-04-09T09:06:38;10.00;99.90
25877;DHT22;13692;47.480;19.216;2023-04-09T09:09:16;9.90;99.90
25877;DHT22;13692;47.480;19.216;2023-04-09T09:11:47;9.80;99.90
25877;DHT22;13692;47.480;19.216;2023-04-09T09:14:19;9.60;99.90
25877;DHT22;13692;47.480;19.216;2023-04-09T09:24:23;9.80;99.90
25877;DHT22;13692;47.480;19.216;2023-04-09T09:26:50;9.80;99.90
25877;DHT22;13692;47.480;19.216;2023-04-09T09:29:17;9.70;99.90
25877;DHT22;13692;47.480;19.216;2023-04-09T09:31:47;9.90;99.90
25877;DHT22;13692;47.480;19.216;2023-04-09T09:34:16;10.00;99.90
25877;DHT22;13692;47.480;19.216;2023-04-09T09:36:44;10.00;99.90
25877;DHT22;13692;47.480;19.216;2023-04-09T09:39:12;9.80;99.90
25877;DHT22;13692;47.480;19.216;2023-04-09T09:41:40;9.60;99.90
25877;DHT22;13692;47.480;19.216;2023-04-09T09:44:09;9.60;99.90
25877;DHT22;13692;47.480;19.216;2023-04-09T09:46:39;9.60;99.90
25877;DHT22;13692;47.480;19.216;2023-04-09T09:49:08;9.70;99.90
25877;DHT22;13692;47.480;19.216;2023-04-09T09:51:36;9.90;99.90
25877;DHT22;13692;47.480;19.216;2023-04-09T09:54:06;10.10;99.90
25877;DHT22;13692;47.480;19.216;2023-04-09T09:56:37;10.10;99.90
25877;DHT22;13692;47.480;19.216;2023-04-09T09:59:21;10.20;99.90
25877;DHT22;13692;47.480;19.216;2023-04-09T10:01:59;10.10;99.90
25877;DHT22;13692;47.480;19.216;2023-04-09T10:04:33;10.10;99.90
25877;DHT22;13692;47.480;19.216;2023-04-09T10:07:03;10.20;99.90
25877;DHT22;13692;47.480;19.216;2023-04-09T10:09:36;10.40;99.90
25877;DHT22;13692;47.480;19.216;2023-04-09T10:12:06;10.60;99.90
25877;DHT22;13692;47.480;19.216;2023-04-09T10:14:34;10.80;99.90
25877;DHT22;13692;47.480;19.216;2023-04-09T10:17:02;10.90;99.90
25877;DHT22;13692;47.480;19.216;2023-04-09T10:19:38;11.30;99.90
25877;DHT22;13692;47.480;19.216;2023-04-09T10:24:34;11.40;99.90
25877;DHT22;13692;47.480;19.216;2023-04-09T10:27:22;11.20;99.90
25877;DHT22;13692;47.480;19.216;2023-04-09T10:29:49;11.00;99.90
25877;DHT22;13692;47.480;19.216;2023-04-09T10:32:21;10.90;99.90
25877;DHT22;13692;47.480;19.216;2023-04-09T10:34:56;10.80;99.90
25877;DHT22;13692;47.480;19.216;2023-04-09T10:37:24;10.60;99.90
25877;DHT22;13692;47.480;19.216;2023-04-09T10:39:52;10.60;99.90
25877;DHT22;13692;47.480;19.216;2023-04-09T10:42:27;10.40;99.90
25877;DHT22;13692;47.480;19.216;2023-04-09T10:45:12;10.30;99.90
25877;DHT22;13692;47.480;19.216;2023-04-09T10:47:41;10.40;99.90
25877;DHT22;13692;47.480;19.216;2023-04-09T10:50:25;10.50;99.90
25877;DHT22;13692;47.480;19.216;2023-04-09T10:52:54;10.60;99.90
25877;DHT22;13692;47.480;19.216;2023-04-09T10:55:40;10.60;99.90
25877;DHT22;13692;47.480;19.216;2023-04-09T10:58:09;10.60;99.90
25877;DHT22;13692;47.480;19.216;2023-04-09T11:00:41;10.40;99.90
25877;DHT22;13692;47.480;19.216;2023-04-09T11:03:21;10.30;99.90
25877;DHT22;13692;47.480;19.216;2023-04-09T11:08:18;10.30;99.90
25877;DHT22;13692;47.480;19.216;2023-04-09T11:10:45;10.30;99.90
25877;DHT22;13692;47.480;19.216;2023-04-09T11:13:18;10.20;99.90
25877;DHT22;13692;47.480;19.216;2023-04-09T11:15:46;10.30;99.90
25877;DHT22;13692;47.480;19.216;2023-04-09T11:18:14;10.40;99.90
25877;DHT22;13692;47.480;19.216;2023-04-09T11:20:45;10.40;99.90
25877;DHT22;13692;47.480;19.216;2023-04-09T11:23:12;10.50;99.90
25877;DHT22;13692;47.480;19.216;2023-04-09T11:25:39;10.70;99.90
25877;DHT22;13692;47.480;19.216;2023-04-09T11:28:06;10.90;99.90
25877;DHT22;13692;47.480;19.216;2023-04-09T11:30:35;11.10;99.90
25877;DHT22;13692;47.480;19.216;2023-04-09T11:33:03;11.20;99.90
25877;DHT22;13692;47.480;19.216;2023-04-09T11:35:33;11.40;99.90
25877;DHT22;13692;47.480;19.216;2023-04-09T11:38:08;11.40;99.90
25877;DHT22;13692;47.480;19.216;2023-04-09T11:40:36;11.50;99.90
25877;DHT22;13692;47.480;19.216;2023-04-09T11:43:06;11.70;99.90
25877;DHT22;13692;47.480;19.216;2023-04-09T11:45:33;11.80;99.90
25877;DHT22;13692;47.480;19.216;2023-04-09T11:48:01;11.80;99.90
25877;DHT22;13692;47.480;19.216;2023-04-09T11:50:28;11.90;99.90
25877;DHT22;13692;47.480;19.216;2023-04-09T11:52:55;12.00;99.90
25877;DHT22;13692;47.480;19.216;2023-04-09T11:57:51;12.20;99.90
25877;DHT22;13692;47.480;19.216;2023-04-09T12:00:19;12.10;99.90
25877;DHT22;13692;47.480;19.216;2023-04-09T12:02:47;12.10;99.90
25877;DHT22;13692;47.480;19.216;2023-04-09T12:05:24;12.40;99.90
25877;DHT22;13692;47.480;19.216;2023-04-09T12:07:51;12.50;99.90
25877;DHT22;13692;47.480;19.216;2023-04-09T12:10:28;12.50;99.90
25877;DHT22;13692;47.480;19.216;2023-04-09T12:13:01;12.70;99.90
25877;DHT22;13692;47.480;19.216;2023-04-09T12:15:33;12.70;99.90
25877;DHT22;13692;47.480;19.216;2023-04-09T12:18:01;12.60;99.90
25877;DHT22;13692;47.480;19.216;2023-04-09T12:20:37;12.40;99.90
25877;DHT22;13692;47.480;19.216;2023-04-09T12:23:11;12.40;99.90
25877;DHT22;13692;47.480;19.216;2023-04-09T12:25:40;12.60;99.90
25877;DHT22;13692;47.480;19.216;2023-04-09T12:28:10;12.70;99.90
25877;DHT22;13692;47.480;19.216;2023-04-09T12:30:37;12.90;99.90
25877;DHT22;13692;47.480;19.216;2023-04-09T12:33:04;12.90;99.90
25877;DHT22;13692;47.480;19.216;2023-04-09T12:35:34;12.80;99.90
25877;DHT22;13692;47.480;19.216;2023-04-09T12:38:01;12.50;99.90
25877;DHT22;13692;47.480;19.216;2023-04-09T12:40:30;12.30;99.90
25877;DHT22;13692;47.480;19.216;2023-04-09T12:42:57;12.50;99.90
25877;DHT22;13692;47.480;19.216;2023-04-09T12:45:24;12.90;99.90
25877;DHT22;13692;47.480;19.216;2023-04-09T12:47:51;13.20;99.90
25877;DHT22;13692;47.480;19.216;2023-04-09T12:50:18;13.20;99.90
25877;DHT22;13692;47.480;19.216;2023-04-09T12:52:45;13.30;99.90
25877;DHT22;13692;47.480;19.216;2023-04-09T12:55:13;13.30;99.90
25877;DHT22;13692;47.480;19.216;2023-04-09T12:57:42;13.40;99.90
25877;DHT22;13692;47.480;19.216;2023-04-09T13:00:11;13.40;99.90
25877;DHT22;13692;47.480;19.216;2023-04-09T13:02:38;13.50;99.90
25877;DHT22;13692;47.480;19.216;2023-04-09T13:05:06;13.50;99.90
25877;DHT22;13692;47.480;19.216;2023-04-09T13:07:33;13.70;99.90
25877;DHT22;13692;47.480;19.216;2023-04-09T13:10:00;13.80;99.90
25877;DHT22;13692;47.480;19.216;2023-04-09T13:12:27;13.90;99.90
25877;DHT22;13692;47.480;19.216;2023-04-09T13:14:54;13.90;99.90
25877;DHT22;13692;47.480;19.216;2023-04-09T13:17:22;13.80;99.90
25877;DHT22;13692;47.480;19.216;2023-04-09T13:19:50;13.80;99.90
25877;DHT22;13692;47.480;19.216;2023-04-09T13:22:17;13.80;99.90
25877;DHT22;13692;47.480;19.216;2023-04-09T13:24:44;13.80;99.90
25877;DHT22;13692;47.480;19.216;2023-04-09T13:27:11;13.50;99.90
25877;DHT22;13692;47.480;19.216;2023-04-09T13:29:38;13.40;99.90
25877;DHT22;13692;47.480;19.216;2023-04-09T13:32:05;13.50;99.90
25877;DHT22;13692;47.480;19.216;2023-04-09T13:34:33;13.60;99.90
25877;DHT22;13692;47.480;19.216;2023-04-09T13:37:01;13.80;99.90
25877;DHT22;13692;47.480;19.216;2023-04-09T13:39:29;13.80;99.90
25877;DHT22;13692;47.480;19.216;2023-04-09T13:41:56;13.70;99.90
25877;DHT22;13692;47.480;19.216;2023-04-09T13:44:26;13.80;99.90
25877;DHT22;13692;47.480;19.216;2023-04-09T13:46:53;13.80;99.90
25877;DHT22;13692;47.480;19.216;2023-04-09T13:49:20;13.80;99.90
25877;DHT22;13692;47.480;19.216;2023-04-09T13:51:47;13.60;99.90
25877;DHT22;13692;47.480;19.216;2023-04-09T13:54:14;13.40;99.90
25877;DHT22;13692;47.480;19.216;2023-04-09T13:56:43;13.20;99.90
25877;DHT22;13692;47.480;19.216;2023-04-09T13:59:11;13.00;99.90
25877;DHT22;13692;47.480;19.216;2023-04-09T14:01:38;12.90;99.90
25877;DHT22;13692;47.480;19.216;2023-04-09T14:04:05;12.90;99.90
25877;DHT22;13692;47.480;19.216;2023-04-09T14:06:32;12.80;99.90
25877;DHT22;13692;47.480;19.216;2023-04-09T14:08:59;12.60;99.90
25877;DHT22;13692;47.480;19.216;2023-04-09T14:11:26;12.40;99.90
25877;DHT22;13692;47.480;19.216;2023-04-09T14:13:53;12.20;99.90
25877;DHT22;13692;47.480;19.216;2023-04-09T14:16:21;12.10;99.90
25877;DHT22;13692;47.480;19.216;2023-04-09T14:18:49;11.90;99.90
25877;DHT22;13692;47.480;19.216;2023-04-09T14:21:17;11.80;99.90
25877;DHT22;13692;47.480;19.216;2023-04-09T14:23:44;11.70;99.90
25877;DHT22;13692;47.480;19.216;2023-04-09T14:26:11;11.60;99.90
25877;DHT22;13692;47.480;19.216;2023-04-09T14:28:38;11.50;99.90
25877;DHT22;13692;47.480;19.216;2023-04-09T14:31:05;11.40;99.90
25877;DHT22;13692;47.480;19.216;2023-04-09T14:33:32;11.50;99.90
25877;DHT22;13692;47.480;19.216;2023-04-09T14:35:59;11.50;99.90
25877;DHT22;13692;47.480;19.216;2023-04-09T14:38:27;11.40;99.90
25877;DHT22;13692;47.480;19.216;2023-04-09T14:40:53;11.40;99.90
25877;DHT22;13692;47.480;19.216;2023-04-09T14:43:20;11.30;99.90
25877;DHT22;13692;47.480;19.216;2023-04-09T14:45:47;11.20;99.90
25877;DHT22;13692;47.480;19.216;2023-04-09T14:48:14;11.20;99.90
25877;DHT22;13692;47.480;19.216;2023-04-09T14:50:42;11.20;99.90
25877;DHT22;13692;47.480;19.216;2023-04-09T14:53:09;11.20;99.90
25877;DHT22;13692;47.480;19.216;2023-04-09T14:55:37;11.20;99.90
25877;DHT22;13692;47.480;19.216;2023-04-09T14:58:04;11.10;99.90
25877;DHT22;13692;47.480;19.216;2023-04-09T15:00:33;11.20;99.90
25877;DHT22;13692;47.480;19.216;2023-04-09T15:03:00;11.20;99.90
25877;DHT22;13692;47.480;19.216;2023-04-09T15:05:27;11.20;99.90
25877;DHT22;13692;47.480;19.216;2023-04-09T15:07:54;11.20;99.90
25877;DHT22;13692;47.480;19.216;2023-04-09T15:10:21;11.20;99.90
25877;DHT22;13692;47.480;19.216;2023-04-09T15:12:48;11.30;99.90
25877;DHT22;13692;47.480;19.216;2023-04-09T15:15:15;11.30;99.90
25877;DHT22;13692;47.480;19.216;2023-04-09T15:17:42;11.30;99.90
25877;DHT22;13692;47.480;19.216;2023-04-09T15:20:09;11.30;99.90
25877;DHT22;13692;47.480;19.216;2023-04-09T15:22:36;11.20;99.90
25877;DHT22;13692;47.480;19.216;2023-04-09T15:25:04;11.20;99.90
25877;DHT22;13692;47.480;19.216;2023-04-09T15:27:31;11.20;99.90
25877;DHT22;13692;47.480;19.216;2023-04-09T15:29:58;11.20;99.90
25877;DHT22;13692;47.480;19.216;2023-04-09T15:32:25;11.20;99.90
25877;DHT22;13692;47.480;19.216;2023-04-09T15:34:52;11.20;99.90
25877;DHT22;13692;47.480;19.216;2023-04-09T15:37:19;11.20;99.90
25877;DHT22;13692;47.480;19.216;2023-04-09T15:39:46;11.20;99.90
25877;DHT22;13692;47.480;19.216;2023-04-09T15:42:12;11.20;99.90
25877;DHT22;13692;47.480;19.216;2023-04-09T15:44:45;11.20;99.90
25877;DHT22;13692;47.480;19.216;2023-04-09T15:47:12;11.20;99.90
25877;DHT22;13692;47.480;19.216;2023-04-09T15:49:39;11.10;99.90
25877;DHT22;13692;47.480;19.216;2023-04-09T15:52:06;11.10;99.90
25877;DHT22;13692;47.480;19.216;2023-04-09T15:54:33;11.10;99.90
25877;DHT22;13692;47.480;19.216;2023-04-09T15:57:00;11.10;99.90